Latest Weather Observations for Jandakot

IDW60901

Issued at 8:21 am WST Monday 31 August 2015 (issued every 10 minutes, with the page automatically refreshed every 10 minutes)

About weather observations | Map of Perth area stations | Latest observations for Perth area | Other Formats
Station Details ID: 009172 Name: JANDAKOT AERO Lat: -32.10 Lon: 115.88 Height: 30.0 m
Data from the previous 72 hours. | See also: Recent months at Jandakot
Date/Time
WST
Tmp

°C
App
Tmp
°C
Dew
Point
°C
Rel
Hum
%
Delta-T

°C
Wind Press
QNH
hPa
Press
MSL
hPa
Rain
since
9 am
mm
Dir
 
Spd
km/h
Gust
km/h
Spd
kts
Gust
kts
31/08:00am 11.4 8.3 8.8 84 1.3 NNE 15 19 8 10 1019.4 1019.4 0.0
31/07:30am 10.5 7.3 8.5 87 1.0 NNE 15 19 8 10 1019.3 1019.3 0.0
31/07:00am 9.9 7.0 8.0 88 0.9 NNE 13 15 7 8 1019.1 1019.1 0.0
31/06:30am 10.3 7.9 8.5 89 0.9 NNE 11 13 6 7 1019.2 1019.2 0.0
31/06:00am 9.5 7.0 8.3 92 0.6 NNE 11 15 6 8 1019.0 1019.0 0.0
31/05:30am 9.9 8.4 8.5 91 0.7 NE 6 7 3 4 1019.2 1019.2 0.0
31/05:00am 9.9 7.5 8.5 91 0.7 NNE 11 15 6 8 1019.1 1019.1 0.0
31/04:30am 10.1 8.8 9.1 93 0.5 NNE 6 9 3 5 1019.2 1019.2 0.0
31/04:00am 10.6 8.7 9.2 91 0.7 NNE 9 13 5 7 1019.4 1019.4 0.0
31/03:30am 10.8 9.0 9.4 91 0.7 NNE 9 13 5 7 1019.6 1019.6 0.0
31/03:00am 10.5 9.7 9.7 95 0.4 S 4 7 2 4 1019.9 1019.9 0.0
31/02:30am 10.6 10.6 9.8 95 0.4 CALM 0 0 0 0 1020.1 1020.1 0.0
31/02:00am 10.8 9.6 9.6 92 0.6 ENE 6 11 3 6 1020.1 1020.1 0.0
31/01:30am 10.8 9.0 9.4 91 0.7 ENE 9 11 5 6 1020.2 1020.2 0.0
31/01:00am 10.8 9.7 9.8 93 0.5 SE 6 9 3 5 1020.5 1020.5 0.0
31/12:30am 11.2 9.9 9.8 91 0.7 SE 7 11 4 6 1020.6 1020.6 0.0
31/12:00am 11.6 9.6 10.0 90 0.8 SSE 11 15 6 8 1020.9 1020.9 0.0
 
Date/Time
WST
Tmp

°C
App
Tmp
°C
Dew
Point
°C
Rel
Hum
%
Delta-T

°C
Wind Press
QNH
hPa
Press
MSL
hPa
Rain
since
9 am
mm
Dir
 
Spd
km/h
Gust
km/h
Spd
kts
Gust
kts
30/11:30pm 11.2 9.8 8.8 85 1.2 E 6 7 3 4 1021.0 1021.0 0.0
30/11:00pm 11.1 9.8 9.3 89 0.9 ESE 6 9 3 5 1021.2 1021.2 0.0
30/10:30pm 11.8 11.7 9.4 85 1.2 CALM 0 0 0 0 1021.4 1021.4 0.0
30/10:00pm 11.4 11.3 9.6 89 0.9 CALM 0 0 0 0 1021.5 1021.5 0.0
30/09:30pm 11.1 10.9 9.1 87 1.0 CALM 0 0 0 0 1021.6 1021.6 0.0
30/09:00pm 11.0 10.6 8.3 83 1.3 CALM 0 0 0 0 1021.9 1021.9 0.0
30/08:30pm 12.7 12.2 7.8 72 2.4 CALM 0 0 0 0 1021.8 1021.8 0.0
30/08:00pm 12.9 11.5 8.7 75 2.1 SSE 6 7 3 4 1021.6 1021.6 0.0
30/07:30pm 11.8 10.4 8.8 82 1.5 SSW 6 7 3 4 1021.5 1021.5 0.0
30/07:00pm 11.9 10.4 8.5 80 1.7 SW 6 6 3 3 1021.2 1021.2 0.0
30/06:30pm 13.4 11.2 6.2 61 3.4 SW 7 9 4 5 1021.0 1021.0 0.0
30/06:00pm 13.7 10.7 5.9 59 3.7 WSW 11 15 6 8 1020.8 1020.8 0.0
30/05:30pm 15.1 11.9 5.1 51 4.7 WSW 11 15 6 8 1020.5 1020.5 0.0
30/05:00pm 16.2 12.2 4.7 46 5.4 SW 15 20 8 11 1020.4 1020.4 0.0
30/04:30pm 16.4 12.0 5.0 47 5.4 WSW 17 26 9 14 1020.2 1020.2 0.0
30/04:00pm 17.2 12.9 5.1 44 5.8 WSW 17 24 9 13 1020.3 1020.3 0.0
30/03:30pm 17.2 12.4 4.8 44 5.9 WSW 19 24 10 13 1020.1 1020.1 0.0
30/03:00pm 17.4 12.5 3.9 40 6.3 W 19 24 10 13 1020.1 1020.1 0.0
30/02:30pm 17.7 13.3 4.7 42 6.2 WSW 17 26 9 14 1019.9 1019.9 0.0
30/02:00pm 17.4 13.1 5.1 44 5.9 SSW 17 28 9 15 1019.5 1019.5 0.0
30/01:30pm 17.5 13.7 5.8 46 5.7 SSW 15 24 8 13 1019.4 1019.4 0.0
30/01:00pm 17.3 13.1 5.7 46 5.6 SSW 17 24 9 13 1019.7 1019.7 0.0
30/12:30pm 17.3 12.9 6.5 49 5.3 SSW 19 28 10 15 1019.8 1019.8 0.0
30/12:00pm 17.4 12.7 5.1 44 5.9 SSW 19 32 10 17 1020.2 1020.2 0.0
30/11:30am 17.1 12.3 5.7 47 5.5 SW 20 30 11 16 1020.5 1020.5 0.0
30/11:00am 17.2 12.4 7.4 52 4.9 SW 22 32 12 17 1020.5 1020.5 0.0
30/10:30am 16.7 12.5 8.2 57 4.3 S 20 28 11 15 1020.3 1020.3 0.0
30/10:00am 16.5 12.2 7.0 53 4.7 SW 19 28 10 15 1020.1 1020.1 0.0
30/09:30am 16.2 14.5 9.7 65 3.4 SSW 9 17 5 9 1020.0 1020.0 0.0
30/09:00am 15.1 13.8 11.2 77 2.1 S 9 13 5 7 1019.8 1019.8 17.8
30/08:30am 15.1 13.3 10.7 75 2.3 SSW 11 15 6 8 1019.5 1019.5 17.8
30/08:00am 14.3 12.2 11.1 81 1.7 S 13 19 7 10 1018.9 1018.9 17.8
30/07:30am 13.0 11.3 11.1 88 1.0 S 11 15 6 8 1018.7 1018.7 17.6
30/07:00am 12.7 10.8 10.4 86 1.2 SSW 11 15 6 8 1018.1 1018.1 17.6
30/06:30am 11.4 10.1 10.0 91 0.7 S 7 9 4 5 1017.3 1017.3 17.6
30/06:00am 13.3 11.8 10.4 82 1.5 SSW 9 13 5 7 1016.9 1016.9 17.6
30/05:30am 13.5 11.2 10.4 81 1.6 SW 13 20 7 11 1016.5 1016.5 17.6
30/05:00am 13.8 11.6 10.8 82 1.6 SW 13 17 7 9 1016.2 1016.2 17.6
30/04:30am 14.1 11.1 10.7 80 1.8 SW 17 24 9 13 1016.0 1016.0 17.6
30/04:00am 14.5 11.7 11.5 82 1.6 SW 17 24 9 13 1015.7 1015.7 17.6
30/03:30am 13.8 13.9 12.7 93 0.6 N 4 13 2 7 1015.5 1015.5 17.6
30/03:00am 13.8 14.8 13.3 97 0.3 CALM 0 6 0 3 1015.4 1015.4 17.6
30/02:30am 13.8 13.6 12.9 94 0.5 S 6 9 3 5 1015.4 1015.4 17.4
30/02:00am 14.1 11.8 13.0 93 0.6 WSW 17 24 9 13 1015.5 1015.5 17.4
30/01:49am 14.4 12.0 12.8 90 0.9 W 17 43 9 23 1015.5 1015.5 17.2
30/01:30am 14.8 14.2 13.4 91 0.8 WNW 9 15 5 8 1015.2 1015.2 16.8
30/01:00am 14.7 13.9 14.0 96 0.4 N 11 11 6 6 1014.9 1014.9 16.6
30/12:30am 14.7 14.3 14.2 97 0.3 N 9 11 5 6 1014.8 1014.8 16.4
30/12:00am 14.8 14.3 13.7 93 0.6 NNW 9 9 5 5 1014.8 1014.8 16.2
 
Date/Time
WST
Tmp

°C
App
Tmp
°C
Dew
Point
°C
Rel
Hum
%
Delta-T

°C
Wind Press
QNH
hPa
Press
MSL
hPa
Rain
since
9 am
mm
Dir
 
Spd
km/h
Gust
km/h
Spd
kts
Gust
kts
29/11:30pm 14.9 14.6 13.3 90 0.9 W 7 11 4 6 1014.6 1014.6 16.2
29/11:08pm 14.9 14.5 14.0 94 0.5 WSW 9 15 5 8 1014.7 1014.7 16.2
29/11:00pm 14.9 13.6 13.8 93 0.6 WSW 13 19 7 10 1014.8 1014.8 16.0
29/10:52pm 15.1 14.7 14.2 94 0.5 WNW 9 15 5 8 1015.0 1015.0 15.6
29/10:30pm 15.0 14.6 14.1 94 0.5 WNW 9 13 5 7 1014.8 1014.8 14.2
29/10:11pm 14.9 14.2 14.2 96 0.4 SW 11 17 6 9 1014.5 1014.5 14.2
29/10:00pm 14.9 12.6 14.2 96 0.4 SW 19 28 10 15 1014.5 1014.5 14.2
29/09:54pm 15.0 12.8 14.3 96 0.4 SW 19 30 10 16 1014.5 1014.5 14.2
29/09:41pm 15.4 13.0 14.5 94 0.5 W 20 32 11 17 1014.3 1014.3 14.0
29/09:35pm 15.9 15.1 15.2 96 0.4 NW 13 20 7 11 1014.3 1014.3 13.6
29/09:30pm 15.9 15.1 15.0 94 0.5 NNW 13 17 7 9 1014.0 1014.0 11.4
29/09:15pm 15.8 13.8 14.9 94 0.5 NW 19 22 10 12 1014.1 1014.1 11.2
29/09:00pm 15.7 13.1 15.0 96 0.4 WNW 22 33 12 18 1014.2 1014.2 10.8
29/08:43pm 16.3 15.3 14.6 90 1.0 NNW 13 17 7 9 1014.1 1014.1 8.0
29/08:30pm 16.7 15.8 13.7 82 1.7 N 11 15 6 8 1013.7 1013.7 6.4
29/08:00pm 16.2 15.5 13.3 83 1.6 N 9 11 5 6 1013.6 1013.6 6.4
29/07:30pm 16.3 15.7 13.5 83 1.6 NNW 9 13 5 7 1013.4 1013.4 6.4
29/07:00pm 16.4 15.6 13.0 80 1.9 NNW 9 13 5 7 1013.2 1013.2 6.4
29/06:30pm 17.1 15.6 13.0 77 2.3 NW 13 17 7 9 1013.0 1013.0 6.4
29/06:00pm 17.6 15.8 13.2 75 2.5 NW 15 19 8 10 1012.7 1012.7 6.4
29/05:30pm 18.6 16.0 13.3 71 3.0 WNW 19 26 10 14 1012.5 1012.5 6.4
29/05:00pm 18.8 16.2 13.3 70 3.1 NW 19 28 10 15 1012.3 1012.3 6.4
29/04:30pm 19.2 16.9 14.0 72 3.0 W 19 24 10 13 1012.3 1012.3 6.4
29/04:00pm 19.9 16.9 13.6 67 3.6 W 22 30 12 16 1012.2 1012.2 6.4
29/03:30pm 20.0 16.4 14.3 69 3.3 WNW 26 35 14 19 1012.1 1012.1 6.4
29/03:00pm 19.7 15.7 15.1 75 2.7 WNW 30 39 16 21 1012.1 1012.1 6.4
29/02:40pm 19.3 16.6 15.6 79 2.2 WNW 24 32 13 17 1012.0 1012.0 6.4
29/02:30pm 18.0 15.3 16.5 91 0.9 WNW 26 39 14 21 1012.0 1012.0 6.4
29/02:17pm 17.5 14.1 15.8 90 1.0 NW 28 41 15 22 1012.1 1012.1 3.4
29/02:00pm 19.7 17.3 16.4 81 2.0 NNW 24 32 13 17 1012.0 1012.0 1.6
29/01:30pm 17.5 14.6 16.2 92 0.8 NNW 26 35 14 19 1012.3 1012.3 1.6
29/01:00pm 19.7 15.4 15.3 76 2.6 NNW 32 43 17 23 1012.0 1012.0 1.4
29/12:40pm 19.9 15.5 15.7 77 2.5 NNW 33 52 18 28 1012.4 1012.4 1.4
29/12:30pm 19.5 14.8 15.8 79 2.2 NNW 35 52 19 28 1012.5 1012.5 1.4
29/12:00pm 17.8 14.4 15.8 88 1.2 NNW 28 39 15 21 1013.0 1013.0 1.2
29/11:30am 18.9 14.3 14.6 76 2.5 NNW 32 44 17 24 1013.0 1013.0 0.2
29/11:00am 19.7 14.8 13.8 69 3.4 NNW 32 41 17 22 1013.0 1013.0 0.0
29/10:30am 19.2 15.2 14.2 73 2.9 N 28 41 15 22 1013.3 1013.3 0.0
29/10:00am 18.3 14.7 14.1 76 2.4 N 26 39 14 21 1013.5 1013.5 0.0
29/09:30am 16.9 14.5 14.3 85 1.5 N 20 24 11 13 1014.0 1014.0 0.0
29/09:00am 16.1 12.7 13.6 85 1.4 N 24 33 13 18 1014.1 1014.1 7.2
29/08:31am 16.4 12.3 13.9 85 1.4 NNE 28 33 15 18 1013.9 1013.9 7.2
29/08:30am 16.4 12.3 13.9 85 1.4 NNE 28 33 15 18 1013.9 1013.9 7.2
29/08:00am 15.3 12.4 14.1 92 0.7 NNE 22 30 12 16 1013.9 1013.9 7.2
29/07:30am 14.3 12.1 13.4 94 0.5 N 17 20 9 11 1014.0 1014.0 7.2
29/07:20am 14.0 11.9 13.5 97 0.3 N 17 20 9 11 1013.9 1013.9 7.2
29/07:00am 13.2 11.2 12.8 97 0.2 NNE 15 17 8 9 1013.6 1013.6 7.2
29/06:30am 13.0 11.7 12.6 97 0.2 N 11 15 6 8 1013.3 1013.3 7.2
29/06:00am 13.3 11.8 13.1 99 0.1 NNE 13 15 7 8 1013.1 1013.1 7.0
29/05:30am 13.4 11.9 13.2 99 0.1 N 13 15 7 8 1013.1 1013.1 7.0
29/05:08am 13.3 12.5 12.9 97 0.2 N 9 13 5 7 1013.1 1013.1 7.0
29/05:00am 13.1 12.7 12.9 99 0.1 N 7 11 4 6 1013.1 1013.1 7.0
29/04:30am 13.4 12.3 13.2 99 0.1 NNE 11 13 6 7 1013.1 1013.1 7.0
29/04:00am 13.1 12.3 12.9 99 0.1 NNE 9 11 5 6 1013.3 1013.3 7.0
29/03:38am 13.4 12.7 13.2 99 0.1 NNE 9 11 5 6 1013.5 1013.5 7.0
29/03:30am 13.4 12.7 13.2 99 0.1 NNE 9 11 5 6 1013.5 1013.5 7.0
29/03:00am 14.0 12.7 13.8 99 0.1 NNE 13 15 7 8 1013.8 1013.8 7.0
29/02:49am 14.0 13.1 13.8 99 0.1 N 11 13 6 7 1013.9 1013.9 7.0
29/02:30am 14.0 12.7 13.8 99 0.1 NNE 13 17 7 9 1013.9 1013.9 7.0
29/02:22am 13.9 12.5 13.5 97 0.2 NNE 13 15 7 8 1013.9 1013.9 7.0
29/02:00am 13.6 12.6 13.4 99 0.1 NNE 11 13 6 7 1014.1 1014.1 7.0
29/01:30am 13.8 12.8 13.4 97 0.2 NNE 11 13 6 7 1014.5 1014.5 7.0
29/01:00am 14.1 12.8 13.7 97 0.2 NNE 13 13 7 7 1014.7 1014.7 7.0
29/12:30am 14.6 13.5 14.2 97 0.2 NNE 13 17 7 9 1014.9 1014.9 7.0
29/12:00am 15.0 13.6 14.5 97 0.3 NNE 15 19 8 10 1015.0 1015.0 7.0
 
Date/Time
WST
Tmp

°C
App
Tmp
°C
Dew
Point
°C
Rel
Hum
%
Delta-T

°C
Wind Press
QNH
hPa
Press
MSL
hPa
Rain
since
9 am
mm
Dir
 
Spd
km/h
Gust
km/h
Spd
kts
Gust
kts
28/11:30pm 14.9 13.5 14.4 97 0.3 NNE 15 17 8 9 1015.3 1015.3 7.0
28/11:00pm 14.4 13.6 13.9 97 0.3 NNE 11 13 6 7 1015.6 1015.6 7.0
28/10:30pm 14.2 13.6 13.5 96 0.4 N 9 11 5 6 1016.1 1016.1 7.0
28/10:00pm 14.3 14.3 13.6 96 0.4 NNE 6 7 3 4 1016.3 1016.3 7.0
28/09:30pm 14.2 12.9 13.7 97 0.3 NNE 13 15 7 8 1016.2 1016.2 7.0
28/09:00pm 13.4 13.2 12.9 97 0.3 NNE 6 11 3 6 1016.4 1016.4 7.0
28/08:30pm 13.4 14.2 12.5 94 0.5 CALM 0 0 0 0 1016.2 1016.2 7.0
28/08:00pm 13.5 14.3 12.6 94 0.5 CALM 0 0 0 0 1016.0 1016.0 7.0
28/07:30pm 14.4 15.1 13.5 94 0.5 NNE 2 7 1 4 1015.9 1015.9 7.0
28/07:00pm 15.1 14.9 13.7 91 0.8 NNE 7 7 4 4 1015.7 1015.7 7.0
28/06:30pm 16.4 16.6 14.3 87 1.2 WNW 6 6 3 3 1015.5 1015.5 7.0
28/06:00pm 17.7 18.4 14.4 81 1.9 W 4 7 2 4 1015.1 1015.1 7.0
28/05:30pm 18.6 18.3 14.3 76 2.5 WNW 9 13 5 7 1015.1 1015.1 7.0
28/05:00pm 18.8 17.6 14.1 74 2.7 W 13 17 7 9 1015.0 1015.0 7.0
28/04:30pm 19.6 18.1 14.1 70 3.2 W 15 19 8 10 1014.8 1014.8 7.0
28/04:00pm 19.2 17.7 14.2 73 2.9 W 15 17 8 9 1014.7 1014.7 7.0
28/03:30pm 19.9 19.1 15.0 73 2.9 WNW 13 15 7 8 1014.7 1014.7 7.0
28/03:00pm 19.5 18.8 15.4 77 2.4 W 13 19 7 10 1014.7 1014.7 7.0
28/02:30pm 19.5 18.8 16.5 83 1.8 NW 15 20 8 11 1014.7 1014.7 7.0
28/02:00pm 18.2 17.9 16.5 90 1.0 WNW 13 19 7 10 1014.8 1014.8 7.0
28/01:57pm 18.0 17.6 16.3 90 1.0 WNW 13 19 7 10 1014.9 1014.9 7.0
28/01:40pm 16.8 14.8 15.6 93 0.7 WNW 20 30 11 16 1015.1 1015.1 6.4
28/01:30pm 17.7 16.6 16.4 92 0.8 WNW 17 24 9 13 1015.2 1015.2 3.8
28/01:00pm 18.2 15.3 16.2 88 1.2 WNW 26 37 14 20 1015.3 1015.3 3.4
28/12:30pm 18.6 16.7 15.7 83 1.7 NW 20 28 11 15 1015.5 1015.5 3.4
28/12:00pm 18.2 16.8 15.5 84 1.6 NNW 17 24 9 13 1015.9 1015.9 3.4
28/11:30am 19.1 17.2 15.7 80 2.0 N 20 32 11 17 1015.9 1015.9 3.4
28/11:00am 17.5 17.8 16.0 91 0.9 NNW 9 13 5 7 1016.0 1016.0 3.4
28/10:51am 17.0 16.5 15.8 93 0.7 NNW 13 15 7 8 1016.0 1016.0 3.4
28/10:39am 16.9 15.6 15.9 94 0.6 NNW 17 24 9 13 1016.2 1016.2 3.0
28/10:30am 17.0 15.2 15.5 91 0.9 N 19 24 10 13 1016.3 1016.3 1.6
28/10:11am 17.9 17.1 15.2 84 1.6 NW 13 26 7 14 1016.2 1016.2 1.4
28/10:00am 17.2 16.2 15.5 90 1.0 NNW 15 22 8 12 1016.3 1016.3 1.4
28/09:56am 17.2 15.6 15.1 87 1.2 N 17 24 9 13 1016.3 1016.3 1.2
28/09:30am 17.3 16.2 15.2 87 1.2 N 15 20 8 11 1016.4 1016.4 0.2
28/09:00am 16.9 14.5 13.9 82 1.7 N 19 26 10 14 1016.3 1016.3 0.0
28/08:30am 16.5 14.9 14.0 85 1.4 N 15 20 8 11 1016.1 1016.1 0.0

Latest Capital City Observations: Canberra | Sydney | Melbourne | Brisbane | Adelaide | Perth | Hobart | Darwin

Other Formats:

Comma delimited format used in spreadsheet applications
http://www.bom.gov.au/fwo/IDW60901/IDW60901.94609.axf

JavaScript Object Notation format (JSON) in row-major order
http://www.bom.gov.au/fwo/IDW60901/IDW60901.94609.json